createdAt,value
2022-12-18T00:00:30.993Z,9.40
2022-12-18T00:03:37.039Z,9.43
2022-12-18T00:06:39.649Z,8.68
2022-12-18T00:09:42.360Z,9.80
2022-12-18T00:12:44.635Z,9.93
2022-12-18T00:15:46.890Z,9.18
2022-12-18T00:18:50.220Z,10.20
2022-12-18T00:21:52.379Z,9.27
2022-12-18T00:24:54.823Z,9.37
2022-12-18T00:27:57.003Z,8.87
2022-12-18T00:31:06.229Z,9.18
2022-12-18T00:34:11.412Z,8.77
2022-12-18T00:37:20.034Z,8.63
2022-12-18T00:40:26.665Z,9.60
2022-12-18T00:43:29.665Z,9.53
2022-12-18T00:46:32.266Z,9.65
2022-12-18T00:49:34.443Z,8.95
2022-12-18T00:52:36.878Z,9.07
2022-12-18T00:55:40.740Z,9.60
2022-12-18T00:58:42.994Z,8.77
2022-12-18T01:01:46.102Z,9.68
2022-12-18T01:04:48.514Z,8.30
2022-12-18T01:07:54.484Z,8.88
2022-12-18T01:10:58.375Z,10.00
2022-12-18T01:14:01.354Z,8.97
2022-12-18T01:17:04.707Z,9.52
2022-12-18T01:20:09.866Z,9.75
2022-12-18T01:23:12.224Z,9.82
2022-12-18T01:26:16.554Z,10.23
2022-12-18T01:29:19.592Z,10.50
2022-12-18T01:32:23.081Z,11.00
2022-12-18T01:35:25.966Z,11.05
2022-12-18T01:38:30.449Z,10.32
2022-12-18T01:41:52.194Z,11.47
2022-12-18T01:44:58.740Z,10.03
2022-12-18T01:48:06.085Z,11.52
2022-12-18T01:51:11.050Z,10.18
2022-12-18T01:54:13.352Z,10.45
2022-12-18T01:57:15.892Z,11.70
2022-12-18T02:00:21.453Z,10.87
2022-12-18T02:03:23.747Z,9.90
2022-12-18T02:06:40.002Z,10.45
2022-12-18T02:09:48.698Z,9.68
2022-12-18T02:12:59.363Z,9.50
2022-12-18T02:16:25.120Z,8.93
2022-12-18T02:20:05.366Z,10.35
2022-12-18T02:23:16.652Z,9.00
2022-12-18T02:26:28.753Z,9.13
2022-12-18T02:29:37.011Z,9.07
2022-12-18T02:32:41.594Z,8.77
2022-12-18T02:35:45.729Z,12.52
2022-12-18T02:38:48.950Z,11.60
2022-12-18T02:41:54.706Z,11.77
2022-12-18T02:44:58.866Z,11.70
2022-12-18T02:48:02.200Z,12.63
2022-12-18T02:51:30.750Z,10.68
2022-12-18T02:54:44.797Z,10.68
2022-12-18T02:58:20.943Z,11.55
2022-12-18T03:01:34.612Z,10.63
2022-12-18T03:04:45.215Z,10.07
2022-12-18T03:07:56.951Z,10.20
2022-12-18T03:11:06.069Z,10.30
2022-12-18T03:14:10.542Z,10.70
2022-12-18T03:17:14.845Z,10.63
2022-12-18T03:20:21.023Z,10.80
2022-12-18T03:23:26.493Z,11.45
2022-12-18T03:26:30.708Z,12.23
2022-12-18T03:29:44.099Z,9.98
2022-12-18T03:33:18.834Z,13.10
2022-12-18T03:36:22.634Z,11.47
2022-12-18T03:39:26.869Z,12.50
2022-12-18T03:42:49.077Z,11.55
2022-12-18T03:45:59.306Z,13.27
2022-12-18T03:49:13.062Z,13.43
2022-12-18T03:52:22.628Z,12.90
2022-12-18T03:55:26.381Z,12.88
2022-12-18T03:58:36.703Z,13.02
2022-12-18T04:01:54.567Z,11.38
2022-12-18T04:05:00.945Z,12.00
2022-12-18T04:08:03.525Z,11.20
2022-12-18T04:11:09.136Z,10.93
2022-12-18T04:14:17.380Z,11.32
2022-12-18T04:17:20.574Z,12.43
2022-12-18T04:20:23.343Z,11.67
2022-12-18T04:23:25.944Z,12.70
2022-12-18T04:26:31.855Z,11.88
2022-12-18T04:29:47.054Z,11.10
2022-12-18T04:32:52.332Z,11.98
2022-12-18T04:35:56.079Z,11.97
2022-12-18T04:38:58.428Z,11.73
2022-12-18T04:42:01.034Z,12.00
2022-12-18T04:45:04.363Z,11.75
2022-12-18T04:48:07.429Z,11.20
2022-12-18T04:51:10.429Z,10.73
2022-12-18T04:54:13.415Z,11.87
2022-12-18T04:57:16.609Z,11.10
2022-12-18T05:00:19.700Z,17.98
2022-12-18T05:03:22.765Z,12.77
2022-12-18T05:06:25.786Z,12.50
2022-12-18T05:09:28.778Z,13.27
2022-12-18T05:12:32.894Z,12.48
2022-12-18T05:15:36.034Z,12.77
2022-12-18T05:18:39.593Z,12.02
2022-12-18T05:21:42.584Z,12.17
2022-12-18T05:24:45.676Z,12.40
2022-12-18T05:27:48.972Z,12.40
2022-12-18T05:30:53.728Z,12.20
2022-12-18T05:33:56.896Z,11.50
2022-12-18T05:36:59.890Z,12.27
2022-12-18T05:40:04.008Z,11.13
2022-12-18T05:43:06.994Z,11.88
2022-12-18T05:46:14.141Z,11.60
2022-12-18T05:49:17.277Z,10.85
2022-12-18T05:52:20.266Z,11.43
2022-12-18T05:55:23.257Z,10.60
2022-12-18T05:58:26.767Z,11.43
2022-12-18T06:01:29.765Z,11.65
2022-12-18T06:04:34.278Z,10.98
2022-12-18T06:07:36.967Z,13.90
2022-12-18T06:10:39.956Z,12.90
2022-12-18T06:13:43.127Z,13.38
2022-12-18T06:16:46.035Z,11.75
2022-12-18T06:19:49.033Z,11.90
2022-12-18T06:22:52.119Z,12.70
2022-12-18T06:25:55.216Z,15.60
2022-12-18T06:28:58.601Z,14.40
2022-12-18T06:32:02.374Z,13.88
2022-12-18T06:35:06.131Z,17.27
2022-12-18T06:38:09.528Z,14.13
2022-12-18T06:41:18.256Z,15.17
2022-12-18T06:44:21.451Z,15.65
2022-12-18T06:47:24.645Z,15.88
2022-12-18T06:50:27.840Z,15.63
2022-12-18T06:53:31.342Z,18.10
2022-12-18T06:56:34.235Z,16.87
2022-12-18T06:59:37.327Z,16.42
2022-12-18T07:02:40.464Z,17.38
2022-12-18T07:05:43.410Z,15.63
2022-12-18T07:08:47.220Z,18.77
2022-12-18T07:11:50.316Z,16.03
2022-12-18T07:14:53.412Z,18.92
2022-12-18T07:17:56.504Z,17.02
2022-12-18T07:20:59.492Z,16.33
2022-12-18T07:24:02.586Z,18.00
2022-12-18T07:27:05.466Z,18.53
2022-12-18T07:30:11.531Z,20.98
2022-12-18T07:33:13.945Z,18.92
2022-12-18T07:36:17.039Z,19.13
2022-12-18T07:39:20.130Z,18.07
2022-12-18T07:42:32.134Z,17.30
2022-12-18T07:45:35.108Z,19.13
2022-12-18T07:48:37.772Z,20.35
2022-12-18T07:51:40.059Z,21.63
2022-12-18T07:54:42.565Z,19.17
2022-12-18T07:57:56.412Z,17.77
2022-12-18T08:01:06.977Z,16.95
2022-12-18T08:04:09.673Z,18.50
2022-12-18T08:07:12.095Z,17.30
2022-12-18T08:10:14.515Z,18.27
2022-12-18T08:13:16.795Z,18.47
2022-12-18T08:16:19.653Z,19.90
2022-12-18T08:19:23.010Z,19.65
2022-12-18T08:22:25.395Z,18.60
2022-12-18T08:25:38.118Z,19.60
2022-12-18T08:28:41.248Z,19.53
2022-12-18T08:31:43.757Z,17.88
2022-12-18T08:34:46.000Z,17.33
2022-12-18T08:37:48.177Z,17.27
2022-12-18T08:40:51.965Z,15.67
2022-12-18T08:44:13.478Z,17.10
2022-12-18T08:47:15.744Z,17.13
2022-12-18T08:50:18.769Z,17.85
2022-12-18T08:53:24.696Z,17.30
2022-12-18T08:56:27.258Z,17.53
2022-12-18T08:59:32.461Z,15.60
2022-12-18T09:02:34.786Z,17.85
2022-12-18T09:05:37.035Z,18.27
2022-12-18T09:08:39.628Z,17.50
2022-12-18T09:11:42.151Z,16.43
2022-12-18T09:14:44.441Z,17.73
2022-12-18T09:17:46.665Z,15.63
2022-12-18T09:20:53.822Z,19.25
2022-12-18T09:23:58.920Z,15.15
2022-12-18T09:27:01.657Z,16.20
2022-12-18T09:30:04.381Z,18.00
2022-12-18T09:33:06.799Z,17.15
2022-12-18T09:36:11.200Z,15.32
2022-12-18T09:39:14.916Z,17.73
2022-12-18T09:42:24.017Z,16.70
2022-12-18T09:45:26.656Z,16.90
2022-12-18T09:48:36.381Z,15.65
2022-12-18T09:51:42.103Z,16.25
2022-12-18T09:54:51.247Z,17.27
2022-12-18T09:57:57.503Z,33.57
2022-12-18T10:00:59.983Z,16.10
2022-12-18T10:04:02.221Z,16.17
2022-12-18T10:07:22.176Z,18.65
2022-12-18T10:10:32.822Z,18.95
2022-12-18T10:13:41.430Z,15.77
2022-12-18T10:16:46.454Z,16.00
2022-12-18T10:20:02.080Z,18.95
2022-12-18T10:23:13.133Z,14.77
2022-12-18T10:26:15.537Z,13.73
2022-12-18T10:29:19.815Z,15.20
2022-12-18T10:32:28.256Z,14.90
2022-12-18T10:35:30.447Z,17.67
2022-12-18T10:38:33.269Z,17.65
2022-12-18T10:41:35.512Z,18.80
2022-12-18T10:44:37.726Z,17.73
2022-12-18T10:47:47.535Z,17.90
2022-12-18T10:54:22.830Z,19.02
2022-12-18T10:57:27.706Z,18.65
2022-12-18T11:00:34.512Z,20.20
2022-12-18T11:03:42.774Z,19.37
2022-12-18T11:07:00.249Z,17.65
2022-12-18T11:10:02.493Z,20.75
2022-12-18T11:13:31.133Z,18.42
2022-12-18T11:16:57.888Z,16.47
2022-12-18T11:20:08.591Z,17.17
2022-12-18T11:23:14.613Z,15.00
2022-12-18T11:26:17.005Z,13.13
2022-12-18T11:29:24.941Z,15.35
2022-12-18T11:32:40.833Z,12.93
2022-12-18T11:35:53.012Z,13.77
2022-12-18T11:38:56.755Z,13.85
2022-12-18T11:42:25.563Z,12.95
2022-12-18T11:45:32.606Z,13.90
2022-12-18T11:49:13.657Z,16.03
2022-12-18T11:52:35.489Z,15.43
2022-12-18T11:56:07.082Z,14.00
2022-12-18T11:59:51.211Z,15.25
2022-12-18T12:03:05.736Z,14.15
2022-12-18T12:06:32.445Z,14.57
2022-12-18T12:09:46.426Z,14.10
2022-12-18T12:12:54.873Z,14.35
2022-12-18T12:16:19.674Z,14.60
2022-12-18T12:19:40.009Z,14.77
2022-12-18T12:22:45.972Z,12.17
2022-12-18T12:26:12.601Z,12.90
2022-12-18T12:29:43.007Z,13.55
2022-12-18T12:33:08.342Z,14.52
2022-12-18T12:36:26.559Z,14.32
2022-12-18T12:39:35.291Z,13.40
2022-12-18T12:43:14.673Z,18.57
2022-12-18T12:46:19.780Z,17.92
2022-12-18T12:49:27.711Z,17.15
2022-12-18T12:52:36.401Z,16.45
2022-12-18T12:55:39.216Z,14.73
2022-12-18T12:58:50.174Z,20.23
2022-12-18T13:02:46.221Z,27.27
2022-12-18T13:05:55.634Z,23.77
2022-12-18T13:09:00.149Z,15.88
2022-12-18T13:12:29.345Z,13.67
2022-12-18T13:15:31.582Z,14.40
2022-12-18T13:18:36.261Z,14.00
2022-12-18T13:21:38.951Z,16.88
2022-12-18T13:24:41.100Z,14.18
2022-12-18T13:27:56.735Z,14.27
2022-12-18T13:30:59.404Z,13.57
2022-12-18T13:34:32.084Z,13.35
2022-12-18T13:37:53.409Z,12.85
2022-12-18T13:40:57.853Z,12.05
2022-12-18T13:44:18.994Z,13.07
2022-12-18T13:47:33.150Z,13.13
2022-12-18T13:50:36.518Z,13.60
2022-12-18T13:53:58.745Z,15.90
2022-12-18T13:57:00.918Z,13.98
2022-12-18T14:00:18.363Z,14.43
2022-12-18T14:03:27.569Z,14.03
2022-12-18T14:06:29.837Z,14.27
2022-12-18T14:09:41.105Z,14.15
2022-12-18T14:13:00.693Z,15.20
2022-12-18T14:16:09.098Z,15.47
2022-12-18T14:19:19.858Z,15.77
2022-12-18T14:22:40.454Z,17.45
2022-12-18T14:26:05.460Z,14.57
2022-12-18T14:29:28.927Z,12.90
2022-12-18T14:32:31.143Z,13.93
2022-12-18T14:35:36.146Z,12.93
2022-12-18T14:38:43.754Z,12.27
2022-12-18T14:41:49.820Z,13.43
2022-12-18T14:45:13.426Z,12.88
2022-12-18T14:48:32.656Z,14.23
2022-12-18T14:51:36.367Z,16.83
2022-12-18T14:54:41.094Z,15.75
2022-12-18T14:57:45.824Z,18.67
2022-12-18T15:00:49.440Z,21.80
2022-12-18T15:03:58.473Z,27.60
2022-12-18T15:07:25.830Z,23.17
2022-12-18T15:10:48.799Z,24.98
2022-12-18T15:13:51.947Z,23.20
2022-12-18T15:16:56.234Z,23.83
2022-12-18T15:20:06.103Z,27.63
2022-12-18T15:23:38.695Z,24.87
2022-12-18T15:26:42.462Z,29.30
2022-12-18T15:30:06.651Z,28.70
2022-12-18T15:33:28.435Z,29.67
2022-12-18T15:36:31.410Z,32.20
2022-12-18T15:39:37.771Z,31.10
2022-12-18T15:42:59.732Z,31.80
2022-12-18T15:46:15.367Z,29.45
2022-12-18T15:49:21.586Z,28.40
2022-12-18T15:52:27.420Z,33.13
2022-12-18T15:55:56.491Z,32.00
2022-12-18T15:59:07.342Z,31.63
2022-12-18T16:02:20.156Z,42.70
2022-12-18T16:05:25.138Z,35.92
2022-12-18T16:08:29.116Z,44.07
2022-12-18T16:11:40.623Z,39.80
2022-12-18T16:14:43.687Z,36.72
2022-12-18T16:17:49.120Z,31.02
2022-12-18T16:20:52.727Z,35.47
2022-12-18T16:23:55.940Z,34.13
2022-12-18T16:27:01.231Z,28.53
2022-12-18T16:30:05.300Z,29.00
2022-12-18T16:33:12.193Z,28.77
2022-12-18T16:36:18.446Z,26.73
2022-12-18T16:39:22.030Z,27.37
2022-12-18T16:42:26.426Z,28.90
2022-12-18T16:45:34.368Z,31.92
2022-12-18T16:48:37.420Z,26.60
2022-12-18T16:51:40.486Z,25.77
2022-12-18T16:54:43.290Z,26.20
2022-12-18T16:57:54.126Z,24.33
2022-12-18T17:00:57.608Z,20.60
2022-12-18T17:04:06.175Z,23.85
2022-12-18T17:07:09.942Z,25.90
2022-12-18T17:10:13.223Z,27.73
2022-12-18T17:13:16.393Z,27.50
2022-12-18T17:16:20.270Z,28.80
2022-12-18T17:19:25.547Z,53.53
2022-12-18T17:22:28.759Z,57.90
2022-12-18T17:25:32.239Z,52.57
2022-12-18T17:28:36.093Z,53.77
2022-12-18T17:31:40.040Z,43.75
2022-12-18T17:34:45.347Z,33.88
2022-12-18T17:37:49.337Z,30.02
2022-12-18T17:40:52.604Z,25.87
2022-12-18T17:44:03.124Z,29.13
2022-12-18T17:47:06.964Z,25.05
2022-12-18T17:50:12.041Z,28.17
2022-12-18T17:53:18.364Z,32.97
2022-12-18T17:56:24.153Z,28.80
2022-12-18T17:59:27.526Z,32.97
2022-12-18T18:02:30.996Z,37.10
2022-12-18T18:05:35.409Z,38.75
2022-12-18T18:08:39.933Z,28.67
2022-12-18T18:12:02.034Z,31.50
2022-12-18T18:15:05.904Z,40.67
2022-12-18T18:18:09.152Z,38.35
2022-12-18T18:21:13.841Z,38.55
2022-12-18T18:24:21.623Z,43.85
2022-12-18T18:27:24.406Z,43.67
2022-12-18T18:30:27.702Z,43.97
2022-12-18T18:33:31.129Z,48.47
2022-12-18T18:36:37.912Z,47.22
2022-12-18T18:39:42.104Z,46.78
2022-12-18T18:42:45.168Z,49.07
2022-12-18T18:45:48.605Z,48.20
2022-12-18T18:48:52.023Z,43.92
2022-12-18T18:51:56.123Z,43.33
2022-12-18T18:55:12.756Z,44.72
2022-12-18T18:58:16.616Z,46.83
2022-12-18T19:01:22.245Z,45.90
2022-12-18T19:04:25.648Z,43.38
2022-12-18T19:07:30.681Z,48.88
2022-12-18T19:10:34.028Z,43.53
2022-12-18T19:13:37.012Z,43.67
2022-12-18T19:16:42.256Z,44.60
2022-12-18T19:19:45.857Z,47.08
2022-12-18T19:22:55.618Z,61.13
2022-12-18T19:26:27.003Z,53.67
2022-12-18T19:29:27.986Z,48.80
2022-12-18T19:32:32.025Z,47.37
2022-12-18T19:35:36.725Z,45.92
2022-12-18T19:38:44.870Z,53.22
2022-12-18T19:41:50.611Z,56.92
2022-12-18T19:44:53.164Z,61.77
2022-12-18T19:48:01.043Z,62.33
2022-12-18T19:51:15.220Z,60.05
2022-12-18T19:54:19.013Z,55.22
2022-12-18T19:57:22.299Z,46.83
2022-12-18T20:00:25.452Z,52.97
2022-12-18T20:03:32.312Z,56.17
2022-12-18T20:06:46.585Z,64.68
2022-12-18T20:09:53.868Z,56.80
2022-12-18T20:13:02.553Z,56.55
2022-12-18T20:16:06.380Z,56.97
2022-12-18T20:19:11.364Z,51.43
2022-12-18T20:22:14.493Z,41.85
2022-12-18T20:25:17.592Z,43.03
2022-12-18T20:28:21.068Z,42.90
2022-12-18T20:31:25.370Z,39.47
2022-12-18T20:34:28.091Z,41.63
2022-12-18T20:37:31.289Z,43.53
2022-12-18T20:40:35.476Z,42.38
2022-12-18T20:43:39.376Z,40.55
2022-12-18T20:46:42.297Z,49.43
2022-12-18T20:49:45.750Z,51.00
2022-12-18T20:52:49.315Z,51.22
2022-12-18T20:55:52.004Z,51.58
2022-12-18T20:58:57.168Z,42.17
2022-12-18T21:02:00.023Z,46.17
2022-12-18T21:05:02.945Z,45.53
2022-12-18T21:08:05.968Z,43.42
2022-12-18T21:11:39.631Z,42.55
2022-12-18T21:14:43.846Z,37.00
2022-12-18T21:17:47.041Z,38.20
2022-12-18T21:20:50.536Z,37.90
2022-12-18T21:23:53.499Z,49.45
2022-12-18T21:26:58.535Z,33.50
2022-12-18T21:30:00.899Z,32.80
2022-12-18T21:33:03.383Z,33.70
2022-12-18T21:36:06.882Z,29.73
2022-12-18T21:39:09.130Z,31.48
2022-12-18T21:42:32.774Z,33.67
2022-12-18T21:45:35.356Z,31.92
2022-12-18T21:48:39.110Z,30.17
2022-12-18T21:51:41.620Z,29.33
2022-12-18T21:54:43.819Z,27.55
2022-12-18T21:57:46.625Z,31.35
2022-12-18T22:00:50.530Z,29.77
2022-12-18T22:03:53.145Z,28.87
2022-12-18T22:06:55.560Z,26.80
2022-12-18T22:09:57.970Z,27.23
2022-12-18T22:13:01.679Z,26.38
2022-12-18T22:16:04.211Z,25.60
2022-12-18T22:19:06.804Z,28.63
2022-12-18T22:22:08.970Z,63.97
2022-12-18T22:25:11.959Z,44.28
2022-12-18T22:28:33.168Z,52.83
2022-12-18T22:31:35.920Z,42.90
2022-12-18T22:34:38.698Z,57.87
2022-12-18T22:37:41.993Z,25.83
2022-12-18T22:40:44.388Z,25.50
2022-12-18T22:43:46.675Z,36.13
2022-12-18T22:47:06.640Z,30.33
2022-12-18T22:50:12.514Z,26.07
2022-12-18T22:53:14.771Z,29.67
2022-12-18T22:56:21.194Z,27.85
2022-12-18T22:59:23.969Z,29.83
2022-12-18T23:02:26.406Z,24.90
2022-12-18T23:05:30.318Z,24.53
2022-12-18T23:08:33.523Z,24.60
2022-12-18T23:11:36.406Z,27.95
2022-12-18T23:14:39.393Z,27.75
2022-12-18T23:17:41.805Z,26.88
2022-12-18T23:20:44.180Z,27.37
2022-12-18T23:23:46.630Z,24.70
2022-12-18T23:26:48.990Z,27.38
2022-12-18T23:29:51.170Z,27.85
2022-12-18T23:32:54.752Z,25.77
2022-12-18T23:36:04.018Z,25.13
2022-12-18T23:39:06.848Z,27.33
2022-12-18T23:42:09.061Z,34.45
2022-12-18T23:45:17.933Z,27.63
2022-12-18T23:48:21.244Z,32.30
2022-12-18T23:51:25.251Z,25.97
2022-12-18T23:54:33.232Z,27.53
2022-12-18T23:57:35.955Z,28.00
